FIN8MP ESMS-EFHK
Flight info
| Callsign | FIN8MP |
|---|---|
| Flight time | 1h 14m |
| Altitude | 39000 |
| Route | EKRAL L990 KOTAM DCT REMSA DCT ALAMI DCT OKEVU DCT EVADI Y370 DIVAM |
| Aircraft | E190/M-SDE3GILORVW/S |
Departure
| Time | 2026-05-05 14:36 |
|---|---|
| Airport | Malmö Sturup Airport (ESMS) |
Arrival
| Time | 2026-05-05 15:51 |
|---|---|
| Airport | Helsinki Vantaa Airport (EFHK) |
| Time | Latitude | Longitude | Altitude | Speed | Heading |
|---|---|---|---|---|---|
| 2026-05-05 14:15 | 55.54011 | 13.36787 | 228 ft | 0 kts | 353° |
| 2026-05-05 14:24 | 55.53998 | 13.36789 | 228 ft | 2 kts | 354° |
| 2026-05-05 14:25 | 55.53983 | 13.36792 | 228 ft | 2 kts | 353° |
| 2026-05-05 14:25 | 55.53968 | 13.36795 | 228 ft | 2 kts | 354° |
| 2026-05-05 14:25 | 55.53954 | 13.36790 | 228 ft | 2 kts | 28° |
| 2026-05-05 14:25 | 55.53942 | 13.36774 | 228 ft | 2 kts | 53° |
| 2026-05-05 14:26 | 55.53935 | 13.36751 | 228 ft | 1 kts | 78° |
| 2026-05-05 14:26 | 55.53934 | 13.36740 | 228 ft | 1 kts | 85° |
| 2026-05-05 14:26 | 55.53934 | 13.36736 | 228 ft | 0 kts | 83° |
| 2026-05-05 14:29 | 55.53936 | 13.36756 | 228 ft | 4 kts | 81° |
| 2026-05-05 14:29 | 55.53944 | 13.36870 | 228 ft | 11 kts | 85° |
| 2026-05-05 14:30 | 55.53952 | 13.37009 | 228 ft | 11 kts | 83° |
| 2026-05-05 14:30 | 55.53963 | 13.37162 | 228 ft | 13 kts | 82° |
| 2026-05-05 14:30 | 55.53901 | 13.37274 | 230 ft | 16 kts | 171° |
| 2026-05-05 14:30 | 55.53781 | 13.37297 | 232 ft | 17 kts | 172° |
| 2026-05-05 14:31 | 55.53661 | 13.37319 | 234 ft | 17 kts | 173° |
| 2026-05-05 14:31 | 55.53538 | 13.37349 | 234 ft | 19 kts | 172° |
| 2026-05-05 14:31 | 55.53402 | 13.37373 | 236 ft | 19 kts | 173° |
| 2026-05-05 14:31 | 55.53269 | 13.37401 | 237 ft | 19 kts | 173° |
| 2026-05-05 14:32 | 55.53131 | 13.37431 | 235 ft | 21 kts | 173° |
| 2026-05-05 14:32 | 55.52980 | 13.37461 | 234 ft | 22 kts | 174° |
| 2026-05-05 14:32 | 55.52828 | 13.37494 | 234 ft | 22 kts | 172° |
| 2026-05-05 14:32 | 55.52667 | 13.37524 | 231 ft | 24 kts | 172° |
| 2026-05-05 14:33 | 55.52506 | 13.37561 | 231 ft | 19 kts | 170° |
| 2026-05-05 14:33 | 55.52451 | 13.37585 | 231 ft | 0 kts | 160° |
| 2026-05-05 14:33 | 55.52427 | 13.37611 | 231 ft | 8 kts | 145° |
| 2026-05-05 14:33 | 55.52375 | 13.37680 | 231 ft | 9 kts | 142° |
| 2026-05-05 14:34 | 55.52364 | 13.37695 | 231 ft | 0 kts | 142° |
| 2026-05-05 14:34 | 55.52364 | 13.37696 | 231 ft | 0 kts | 142° |
| 2026-05-05 14:35 | 55.52345 | 13.37721 | 231 ft | 6 kts | 142° |
| 2026-05-05 14:35 | 55.52317 | 13.37795 | 231 ft | 7 kts | 101° |
| 2026-05-05 14:35 | 55.52346 | 13.37878 | 231 ft | 11 kts | 4° |
| 2026-05-05 14:35 | 55.52531 | 13.37846 | 231 ft | 59 kts | 353° |
| 2026-05-05 14:36 | 55.53177 | 13.37716 | 237 ft | 125 kts | 353° |
| 2026-05-05 14:36 | 55.54205 | 13.37516 | 345 ft | 164 kts | 353° |
| 2026-05-05 14:36 | 55.55419 | 13.37312 | 817 ft | 187 kts | 353° |
| 2026-05-05 14:36 | 55.56821 | 13.37118 | 1085 ft | 210 kts | 356° |
| 2026-05-05 14:37 | 55.58250 | 13.36891 | 1541 ft | 208 kts | 350° |
| 2026-05-05 14:37 | 55.59668 | 13.36524 | 2008 ft | 205 kts | 352° |
| 2026-05-05 14:37 | 55.61050 | 13.36775 | 2419 ft | 206 kts | 27° |
| 2026-05-05 14:37 | 55.62186 | 13.38313 | 2825 ft | 207 kts | 37° |
| 2026-05-05 14:38 | 55.63273 | 13.39977 | 3225 ft | 208 kts | 38° |
| 2026-05-05 14:38 | 55.64429 | 13.41762 | 3744 ft | 232 kts | 39° |
| 2026-05-05 14:38 | 55.65684 | 13.43715 | 4244 ft | 254 kts | 39° |
| 2026-05-05 14:38 | 55.67033 | 13.45827 | 4050 ft | 260 kts | 39° |
| 2026-05-05 14:39 | 55.68372 | 13.47929 | 4044 ft | 260 kts | 39° |
| 2026-05-05 14:39 | 55.69489 | 13.50398 | 4031 ft | 264 kts | 64° |
| 2026-05-05 14:39 | 55.70087 | 13.53503 | 4178 ft | 276 kts | 69° |
| 2026-05-05 14:39 | 55.70674 | 13.56770 | 4936 ft | 284 kts | 70° |
| 2026-05-05 14:40 | 55.71265 | 13.60075 | 6000 ft | 281 kts | 70° |
| 2026-05-05 14:40 | 55.71845 | 13.63323 | 7037 ft | 281 kts | 70° |
| 2026-05-05 14:40 | 55.72431 | 13.66611 | 7900 ft | 286 kts | 71° |
| 2026-05-05 14:40 | 55.73035 | 13.70004 | 8660 ft | 295 kts | 71° |
| 2026-05-05 14:41 | 55.73656 | 13.73507 | 9455 ft | 303 kts | 71° |
| 2026-05-05 14:41 | 55.74293 | 13.77101 | 10235 ft | 311 kts | 71° |
| 2026-05-05 14:41 | 55.74944 | 13.80785 | 10976 ft | 322 kts | 71° |
| 2026-05-05 14:41 | 55.75624 | 13.84637 | 11634 ft | 334 kts | 71° |
| 2026-05-05 14:42 | 55.76323 | 13.88608 | 12274 ft | 348 kts | 71° |
| 2026-05-05 14:42 | 55.77058 | 13.92792 | 13034 ft | 358 kts | 72° |
| 2026-05-05 14:42 | 55.77974 | 13.96838 | 13778 ft | 363 kts | 55° |
| 2026-05-05 14:42 | 55.79427 | 14.00492 | 14659 ft | 367 kts | 51° |
| 2026-05-05 14:43 | 55.80937 | 14.04156 | 15544 ft | 371 kts | 51° |
| 2026-05-05 14:43 | 55.82471 | 14.07875 | 16352 ft | 376 kts | 51° |
| 2026-05-05 14:43 | 55.84018 | 14.11625 | 17141 ft | 381 kts | 51° |
| 2026-05-05 14:43 | 55.85590 | 14.15444 | 17892 ft | 387 kts | 52° |
| 2026-05-05 14:44 | 55.87182 | 14.19316 | 18620 ft | 392 kts | 52° |
| 2026-05-05 14:44 | 55.88796 | 14.23246 | 19381 ft | 397 kts | 52° |
| 2026-05-05 14:44 | 55.90414 | 14.27194 | 20148 ft | 400 kts | 52° |
| 2026-05-05 14:44 | 55.92053 | 14.31198 | 20903 ft | 404 kts | 51° |
| 2026-05-05 14:45 | 55.93695 | 14.35218 | 21646 ft | 408 kts | 52° |
| 2026-05-05 14:45 | 55.95382 | 14.39352 | 22328 ft | 412 kts | 52° |
| 2026-05-05 14:45 | 55.97050 | 14.43447 | 23012 ft | 416 kts | 52° |
| 2026-05-05 14:45 | 55.98740 | 14.47600 | 23689 ft | 419 kts | 52° |
| 2026-05-05 14:46 | 56.00637 | 14.51573 | 24324 ft | 419 kts | 39° |
| 2026-05-05 14:46 | 56.02761 | 14.55190 | 24958 ft | 423 kts | 41° |
| 2026-05-05 14:46 | 56.04826 | 14.58924 | 25560 ft | 427 kts | 42° |
| 2026-05-05 14:46 | 56.06890 | 14.62717 | 26159 ft | 431 kts | 42° |
| 2026-05-05 14:47 | 56.08981 | 14.66583 | 26722 ft | 435 kts | 43° |
| 2026-05-05 14:47 | 56.11070 | 14.70457 | 27284 ft | 438 kts | 43° |
| 2026-05-05 14:47 | 56.13176 | 14.74371 | 27858 ft | 441 kts | 43° |
| 2026-05-05 14:47 | 56.15307 | 14.78338 | 28431 ft | 443 kts | 44° |
| 2026-05-05 14:48 | 56.17444 | 14.82323 | 28966 ft | 446 kts | 43° |
| 2026-05-05 14:48 | 56.19580 | 14.86312 | 29483 ft | 449 kts | 43° |
| 2026-05-05 14:48 | 56.21743 | 14.90361 | 29986 ft | 452 kts | 44° |
| 2026-05-05 14:48 | 56.23927 | 14.94455 | 30499 ft | 454 kts | 43° |
| 2026-05-05 14:49 | 56.26128 | 14.98586 | 30953 ft | 458 kts | 44° |
| 2026-05-05 14:49 | 56.28315 | 15.02700 | 31387 ft | 461 kts | 43° |
| 2026-05-05 14:49 | 56.30542 | 15.06898 | 31818 ft | 464 kts | 43° |
| 2026-05-05 14:49 | 56.32764 | 15.11093 | 32293 ft | 465 kts | 43° |
| 2026-05-05 14:50 | 56.34967 | 15.15260 | 32808 ft | 465 kts | 43° |
| 2026-05-05 14:50 | 56.37177 | 15.19447 | 33362 ft | 464 kts | 43° |
| 2026-05-05 14:50 | 56.39413 | 15.23692 | 33922 ft | 462 kts | 43° |
| 2026-05-05 14:50 | 56.41597 | 15.27844 | 34456 ft | 461 kts | 43° |
| 2026-05-05 14:51 | 56.43780 | 15.32003 | 34917 ft | 460 kts | 43° |
| 2026-05-05 14:51 | 56.45960 | 15.36162 | 35273 ft | 459 kts | 43° |
| 2026-05-05 14:51 | 56.48168 | 15.40383 | 35552 ft | 460 kts | 43° |
| 2026-05-05 14:51 | 56.50351 | 15.44563 | 35782 ft | 461 kts | 43° |
| 2026-05-05 14:52 | 56.52533 | 15.48749 | 36002 ft | 462 kts | 43° |
| 2026-05-05 14:52 | 56.54749 | 15.53009 | 36232 ft | 463 kts | 43° |
| 2026-05-05 14:52 | 56.56947 | 15.57242 | 36549 ft | 464 kts | 43° |
| 2026-05-05 14:52 | 56.59150 | 15.61491 | 36878 ft | 464 kts | 43° |
| 2026-05-05 14:53 | 56.61358 | 15.65759 | 37192 ft | 464 kts | 44° |
| 2026-05-05 14:53 | 56.63575 | 15.70052 | 37467 ft | 464 kts | 44° |
| 2026-05-05 14:53 | 56.65751 | 15.74272 | 37736 ft | 465 kts | 44° |
| 2026-05-05 14:53 | 56.67976 | 15.78597 | 38012 ft | 465 kts | 44° |
| 2026-05-05 14:54 | 56.70179 | 15.82885 | 38283 ft | 465 kts | 44° |
| 2026-05-05 14:54 | 56.72371 | 15.87162 | 38551 ft | 465 kts | 44° |
| 2026-05-05 14:54 | 56.74545 | 15.91410 | 38814 ft | 465 kts | 44° |
| 2026-05-05 14:54 | 56.76758 | 15.95741 | 38885 ft | 466 kts | 44° |
| 2026-05-05 14:55 | 56.81194 | 16.04450 | 38917 ft | 479 kts | 45° |
| 2026-05-05 14:55 | 56.85792 | 16.13509 | 38909 ft | 492 kts | 45° |
| 2026-05-05 14:56 | 56.90437 | 16.22700 | 38904 ft | 495 kts | 45° |
| 2026-05-05 14:56 | 56.95081 | 16.31923 | 38903 ft | 494 kts | 45° |
| 2026-05-05 14:57 | 56.99696 | 16.41127 | 38912 ft | 495 kts | 45° |
| 2026-05-05 14:57 | 57.04340 | 16.50424 | 38912 ft | 495 kts | 44° |
| 2026-05-05 14:58 | 57.08900 | 16.59587 | 38914 ft | 496 kts | 44° |
| 2026-05-05 14:58 | 57.13534 | 16.68938 | 38908 ft | 496 kts | 45° |
| 2026-05-05 14:59 | 57.18155 | 16.78301 | 38902 ft | 496 kts | 45° |
| 2026-05-05 14:59 | 57.22746 | 16.87639 | 38925 ft | 497 kts | 45° |
| 2026-05-05 15:00 | 57.26616 | 16.95540 | 38914 ft | 497 kts | 45° |
| 2026-05-05 15:00 | 57.32011 | 17.06600 | 38921 ft | 498 kts | 45° |
| 2026-05-05 15:01 | 57.36621 | 17.16089 | 38909 ft | 498 kts | 46° |
| 2026-05-05 15:01 | 57.41199 | 17.25555 | 38911 ft | 498 kts | 45° |
| 2026-05-05 15:02 | 57.45822 | 17.35151 | 38906 ft | 498 kts | 45° |
| 2026-05-05 15:02 | 57.50402 | 17.44695 | 38919 ft | 500 kts | 45° |
| 2026-05-05 15:03 | 57.54937 | 17.54187 | 38937 ft | 501 kts | 45° |
| 2026-05-05 15:03 | 57.59539 | 17.63858 | 38943 ft | 502 kts | 45° |
| 2026-05-05 15:04 | 57.64153 | 17.73593 | 38936 ft | 502 kts | 46° |
| 2026-05-05 15:04 | 57.68765 | 17.83365 | 38929 ft | 503 kts | 46° |
| 2026-05-05 15:05 | 57.75648 | 17.98024 | 38930 ft | 503 kts | 46° |
| 2026-05-05 15:06 | 57.80224 | 18.07822 | 38951 ft | 503 kts | 46° |
| 2026-05-05 15:06 | 57.84811 | 18.17686 | 38930 ft | 502 kts | 46° |
| 2026-05-05 15:07 | 57.89368 | 18.27523 | 38927 ft | 502 kts | 46° |
| 2026-05-05 15:07 | 57.93911 | 18.37374 | 38902 ft | 501 kts | 46° |
| 2026-05-05 15:08 | 57.98453 | 18.47264 | 38911 ft | 501 kts | 46° |
| 2026-05-05 15:08 | 58.02993 | 18.57192 | 38914 ft | 501 kts | 46° |
| 2026-05-05 15:09 | 58.07509 | 18.67109 | 38904 ft | 501 kts | 47° |
| 2026-05-05 15:09 | 58.12047 | 18.77117 | 38902 ft | 501 kts | 47° |
| 2026-05-05 15:10 | 58.16576 | 18.87146 | 38903 ft | 502 kts | 47° |
| 2026-05-05 15:10 | 58.21049 | 18.97096 | 38899 ft | 501 kts | 47° |
| 2026-05-05 15:11 | 58.25575 | 19.07206 | 38908 ft | 501 kts | 48° |
| 2026-05-05 15:11 | 58.30048 | 19.17242 | 38905 ft | 501 kts | 47° |
| 2026-05-05 15:12 | 58.34439 | 19.27133 | 38901 ft | 501 kts | 47° |
| 2026-05-05 15:12 | 58.38912 | 19.37255 | 38906 ft | 502 kts | 47° |
| 2026-05-05 15:13 | 58.43393 | 19.47438 | 38904 ft | 501 kts | 47° |
| 2026-05-05 15:13 | 58.47853 | 19.57616 | 38891 ft | 502 kts | 47° |
| 2026-05-05 15:14 | 58.52309 | 19.67831 | 38895 ft | 502 kts | 48° |
| 2026-05-05 15:14 | 58.56776 | 19.78116 | 38900 ft | 505 kts | 48° |
| 2026-05-05 15:15 | 58.61208 | 19.88365 | 38880 ft | 504 kts | 48° |
| 2026-05-05 15:15 | 58.65563 | 19.98479 | 38917 ft | 504 kts | 48° |
| 2026-05-05 15:16 | 58.69999 | 20.08825 | 38916 ft | 505 kts | 48° |
| 2026-05-05 15:16 | 58.74443 | 20.19239 | 38901 ft | 505 kts | 48° |
| 2026-05-05 15:17 | 58.78850 | 20.29610 | 38914 ft | 505 kts | 48° |
| 2026-05-05 15:17 | 58.83297 | 20.40122 | 38912 ft | 504 kts | 48° |
| 2026-05-05 15:18 | 58.87718 | 20.50621 | 38928 ft | 504 kts | 48° |
| 2026-05-05 15:18 | 58.92102 | 20.61077 | 38928 ft | 505 kts | 48° |
| 2026-05-05 15:19 | 58.96500 | 20.71613 | 38923 ft | 504 kts | 49° |
| 2026-05-05 15:19 | 59.00816 | 20.82002 | 38928 ft | 504 kts | 49° |
| 2026-05-05 15:20 | 59.05041 | 20.92861 | 38934 ft | 505 kts | 55° |
| 2026-05-05 15:20 | 59.08802 | 21.04351 | 38902 ft | 506 kts | 57° |
| 2026-05-05 15:21 | 59.12460 | 21.15975 | 38916 ft | 506 kts | 57° |
| 2026-05-05 15:21 | 59.16107 | 21.27647 | 38941 ft | 507 kts | 57° |
| 2026-05-05 15:22 | 59.19739 | 21.39329 | 38912 ft | 507 kts | 57° |
| 2026-05-05 15:22 | 59.23266 | 21.50730 | 38927 ft | 505 kts | 57° |
| 2026-05-05 15:22 | 59.25040 | 21.56492 | 38913 ft | 491 kts | 57° |
| 2026-05-05 15:23 | 59.26780 | 21.62155 | 38888 ft | 487 kts | 57° |
| 2026-05-05 15:23 | 59.30253 | 21.73501 | 38913 ft | 491 kts | 58° |
| 2026-05-05 15:24 | 59.33744 | 21.84964 | 38906 ft | 490 kts | 58° |
| 2026-05-05 15:24 | 59.37198 | 21.96343 | 38878 ft | 485 kts | 58° |
| 2026-05-05 15:24 | 59.38902 | 22.01976 | 38764 ft | 467 kts | 58° |
| 2026-05-05 15:25 | 59.40507 | 22.07299 | 38519 ft | 451 kts | 58° |
| 2026-05-05 15:25 | 59.42090 | 22.12555 | 38262 ft | 444 kts | 58° |
| 2026-05-05 15:25 | 59.43683 | 22.17852 | 37125 ft | 476 kts | 58° |
| 2026-05-05 15:25 | 59.45396 | 22.23568 | 36006 ft | 506 kts | 58° |
| 2026-05-05 15:26 | 59.47202 | 22.29613 | 34861 ft | 522 kts | 57° |
| 2026-05-05 15:26 | 59.49018 | 22.35702 | 33461 ft | 536 kts | 57° |
| 2026-05-05 15:26 | 59.50898 | 22.42027 | 32158 ft | 538 kts | 57° |
| 2026-05-05 15:26 | 59.52746 | 22.48271 | 31586 ft | 526 kts | 57° |
| 2026-05-05 15:27 | 59.54575 | 22.54468 | 31006 ft | 515 kts | 57° |
| 2026-05-05 15:27 | 59.56353 | 22.60506 | 30435 ft | 507 kts | 57° |
| 2026-05-05 15:27 | 59.58087 | 22.66411 | 29884 ft | 505 kts | 59° |
| 2026-05-05 15:27 | 59.59850 | 22.72430 | 29322 ft | 504 kts | 58° |
| 2026-05-05 15:28 | 59.61588 | 22.78377 | 28767 ft | 502 kts | 58° |
| 2026-05-05 15:28 | 59.63316 | 22.84307 | 28216 ft | 500 kts | 58° |
| 2026-05-05 15:28 | 59.65049 | 22.90274 | 27658 ft | 496 kts | 58° |
| 2026-05-05 15:28 | 59.66728 | 22.96065 | 27120 ft | 492 kts | 58° |
| 2026-05-05 15:29 | 59.68422 | 23.01922 | 26579 ft | 489 kts | 58° |
| 2026-05-05 15:29 | 59.70090 | 23.07695 | 26042 ft | 485 kts | 58° |
| 2026-05-05 15:29 | 59.71772 | 23.13529 | 25505 ft | 482 kts | 58° |
| 2026-05-05 15:29 | 59.73403 | 23.19203 | 24983 ft | 479 kts | 58° |
| 2026-05-05 15:30 | 59.75048 | 23.24938 | 24457 ft | 476 kts | 58° |
| 2026-05-05 15:30 | 59.76652 | 23.30544 | 23939 ft | 472 kts | 58° |
| 2026-05-05 15:30 | 59.78272 | 23.36220 | 23421 ft | 469 kts | 58° |
| 2026-05-05 15:30 | 59.79855 | 23.41782 | 22906 ft | 466 kts | 58° |
| 2026-05-05 15:31 | 59.81443 | 23.47376 | 22392 ft | 461 kts | 58° |
| 2026-05-05 15:31 | 59.82988 | 23.52823 | 21890 ft | 458 kts | 58° |
| 2026-05-05 15:31 | 59.84544 | 23.58331 | 21384 ft | 454 kts | 58° |
| 2026-05-05 15:31 | 59.86057 | 23.63702 | 20918 ft | 443 kts | 58° |
| 2026-05-05 15:32 | 59.87549 | 23.69015 | 20420 ft | 433 kts | 59° |
| 2026-05-05 15:32 | 59.88986 | 23.74141 | 19950 ft | 424 kts | 59° |
| 2026-05-05 15:32 | 59.90392 | 23.79170 | 19494 ft | 415 kts | 59° |
| 2026-05-05 15:32 | 59.91690 | 23.84218 | 19037 ft | 408 kts | 66° |
| 2026-05-05 15:33 | 59.92790 | 23.89370 | 18604 ft | 400 kts | 66° |
| 2026-05-05 15:33 | 59.93865 | 23.94425 | 18174 ft | 393 kts | 66° |
| 2026-05-05 15:33 | 59.94913 | 23.99356 | 17735 ft | 389 kts | 66° |
| 2026-05-05 15:33 | 59.95970 | 24.04344 | 17311 ft | 387 kts | 66° |
| 2026-05-05 15:34 | 59.97005 | 24.09233 | 16881 ft | 386 kts | 66° |
| 2026-05-05 15:34 | 59.98042 | 24.14144 | 16458 ft | 383 kts | 66° |
| 2026-05-05 15:34 | 59.99057 | 24.18965 | 15982 ft | 374 kts | 66° |
| 2026-05-05 15:34 | 60.00046 | 24.23674 | 15638 ft | 357 kts | 66° |
| 2026-05-05 15:35 | 60.00998 | 24.28213 | 15231 ft | 354 kts | 66° |
| 2026-05-05 15:35 | 60.01926 | 24.32649 | 14834 ft | 350 kts | 65° |
| 2026-05-05 15:35 | 60.02863 | 24.37138 | 14449 ft | 345 kts | 66° |
| 2026-05-05 15:35 | 60.03772 | 24.41503 | 14071 ft | 341 kts | 66° |
| 2026-05-05 15:36 | 60.04676 | 24.45857 | 13699 ft | 338 kts | 65° |
| 2026-05-05 15:36 | 60.05561 | 24.50121 | 13325 ft | 334 kts | 65° |
| 2026-05-05 15:36 | 60.06444 | 24.54389 | 12966 ft | 330 kts | 66° |
| 2026-05-05 15:36 | 60.07317 | 24.58614 | 12602 ft | 327 kts | 65° |
| 2026-05-05 15:37 | 60.08174 | 24.62777 | 12239 ft | 323 kts | 65° |
| 2026-05-05 15:37 | 60.09019 | 24.66881 | 11886 ft | 319 kts | 66° |
| 2026-05-05 15:37 | 60.09865 | 24.70980 | 11521 ft | 314 kts | 63° |
| 2026-05-05 15:37 | 60.11093 | 24.74445 | 11198 ft | 304 kts | 43° |
| 2026-05-05 15:38 | 60.12510 | 24.77558 | 11173 ft | 302 kts | 43° |
| 2026-05-05 15:38 | 60.13936 | 24.80676 | 11045 ft | 306 kts | 43° |
| 2026-05-05 15:38 | 60.15365 | 24.83800 | 10788 ft | 306 kts | 43° |
| 2026-05-05 15:38 | 60.16797 | 24.86931 | 10444 ft | 302 kts | 43° |
| 2026-05-05 15:39 | 60.18192 | 24.89985 | 10144 ft | 297 kts | 43° |
| 2026-05-05 15:39 | 60.19577 | 24.93020 | 9766 ft | 291 kts | 43° |
| 2026-05-05 15:39 | 60.20929 | 24.95985 | 9457 ft | 285 kts | 43° |
| 2026-05-05 15:39 | 60.22243 | 24.98872 | 9151 ft | 281 kts | 43° |
| 2026-05-05 15:40 | 60.23562 | 25.01769 | 8847 ft | 281 kts | 43° |
| 2026-05-05 15:40 | 60.24886 | 25.04686 | 8544 ft | 277 kts | 43° |
| 2026-05-05 15:40 | 60.26172 | 25.07520 | 8370 ft | 272 kts | 43° |
| 2026-05-05 15:40 | 60.27436 | 25.10311 | 8152 ft | 273 kts | 43° |
| 2026-05-05 15:41 | 60.28725 | 25.13159 | 7861 ft | 273 kts | 44° |
| 2026-05-05 15:41 | 60.29997 | 25.15973 | 7573 ft | 271 kts | 44° |
| 2026-05-05 15:41 | 60.31245 | 25.18740 | 7256 ft | 267 kts | 44° |
| 2026-05-05 15:41 | 60.32473 | 25.21464 | 6994 ft | 260 kts | 44° |
| 2026-05-05 15:42 | 60.33683 | 25.24153 | 6714 ft | 256 kts | 44° |
| 2026-05-05 15:42 | 60.34856 | 25.26763 | 6399 ft | 251 kts | 44° |
| 2026-05-05 15:42 | 60.36010 | 25.29333 | 6141 ft | 246 kts | 44° |
| 2026-05-05 15:42 | 60.37151 | 25.31874 | 5866 ft | 244 kts | 44° |
| 2026-05-05 15:43 | 60.38287 | 25.34405 | 5591 ft | 240 kts | 43° |
| 2026-05-05 15:43 | 60.39647 | 25.36069 | 5334 ft | 221 kts | 3° |
| 2026-05-05 15:43 | 60.41082 | 25.35667 | 5297 ft | 210 kts | 342° |
| 2026-05-05 15:43 | 60.42570 | 25.35892 | 5360 ft | 221 kts | 11° |
| 2026-05-05 15:44 | 60.44069 | 25.36713 | 5390 ft | 224 kts | 10° |
| 2026-05-05 15:44 | 60.45554 | 25.37513 | 5395 ft | 224 kts | 10° |
| 2026-05-05 15:44 | 60.47073 | 25.37927 | 5382 ft | 217 kts | 343° |
| 2026-05-05 15:44 | 60.48289 | 25.36378 | 5435 ft | 210 kts | 301° |
| 2026-05-05 15:45 | 60.48657 | 25.33516 | 5211 ft | 219 kts | 264° |
| 2026-05-05 15:45 | 60.48027 | 25.30669 | 4568 ft | 234 kts | 237° |
| 2026-05-05 15:45 | 60.47151 | 25.27930 | 4079 ft | 234 kts | 237° |
| 2026-05-05 15:45 | 60.45946 | 25.25750 | 3824 ft | 227 kts | 224° |
| 2026-05-05 15:46 | 60.44815 | 25.23666 | 3615 ft | 213 kts | 228° |
| 2026-05-05 15:46 | 60.43792 | 25.21572 | 3342 ft | 204 kts | 230° |
| 2026-05-05 15:46 | 60.42846 | 25.19536 | 3077 ft | 197 kts | 231° |
| 2026-05-05 15:46 | 60.41931 | 25.17524 | 2824 ft | 191 kts | 232° |
| 2026-05-05 15:47 | 60.41051 | 25.15577 | 2586 ft | 179 kts | 232° |
| 2026-05-05 15:47 | 60.40523 | 25.14411 | 2452 ft | 161 kts | 233° |
| 2026-05-05 15:47 | 60.39594 | 25.12346 | 2135 ft | 140 kts | 234° |
| 2026-05-05 15:47 | 60.38942 | 25.10898 | 1924 ft | 131 kts | 234° |
| 2026-05-05 15:48 | 60.38368 | 25.09631 | 1711 ft | 113 kts | 235° |
| 2026-05-05 15:48 | 60.37848 | 25.08473 | 1560 ft | 113 kts | 235° |
| 2026-05-05 15:48 | 60.37329 | 25.07318 | 1440 ft | 110 kts | 233° |
| 2026-05-05 15:48 | 60.36783 | 25.06173 | 1310 ft | 113 kts | 232° |
| 2026-05-05 15:49 | 60.36230 | 25.05036 | 1142 ft | 113 kts | 232° |
| 2026-05-05 15:49 | 60.35709 | 25.03882 | 958 ft | 114 kts | 235° |
| 2026-05-05 15:49 | 60.35218 | 25.02679 | 773 ft | 109 kts | 233° |
| 2026-05-05 15:49 | 60.34704 | 25.01519 | 654 ft | 112 kts | 232° |
| 2026-05-05 15:50 | 60.34183 | 25.00355 | 561 ft | 110 kts | 230° |
| 2026-05-05 15:50 | 60.33664 | 24.99212 | 391 ft | 111 kts | 229° |
| 2026-05-05 15:50 | 60.33141 | 24.98085 | 232 ft | 111 kts | 231° |
| 2026-05-05 15:50 | 60.32640 | 24.96964 | 179 ft | 95 kts | 229° |
| 2026-05-05 15:51 | 60.32340 | 24.96300 | 187 ft | 32 kts | 226° |
| 2026-05-05 15:51 | 60.32219 | 24.96039 | 191 ft | 34 kts | 230° |
| 2026-05-05 15:51 | 60.32056 | 24.95819 | 182 ft | 20 kts | 164° |
| 2026-05-05 15:51 | 60.31997 | 24.95898 | 180 ft | 0 kts | 137° |
| 2026-05-05 15:52 | 60.31982 | 24.95926 | 180 ft | 8 kts | 137° |
| 2026-05-05 15:52 | 60.31926 | 24.96028 | 180 ft | 13 kts | 138° |
| 2026-05-05 15:53 | 60.31857 | 24.96177 | 180 ft | 15 kts | 112° |
| 2026-05-05 15:53 | 60.31871 | 24.96361 | 183 ft | 13 kts | 52° |
| 2026-05-05 15:53 | 60.31932 | 24.96492 | 184 ft | 10 kts | 46° |
| 2026-05-05 15:53 | 60.31934 | 24.96564 | 185 ft | 4 kts | 132° |
| 2026-05-05 15:54 | 60.31913 | 24.96606 | 186 ft | 3 kts | 138° |
| 2026-05-05 15:54 | 60.31908 | 24.96617 | 186 ft | 0 kts | 138° |